Time;durP1;ratioP1;P1;durP2;ratioP2;P2;SDS_P1;SDS_P2;PMS_P1;PMS_P2;Temp;Humidity;BMP_temperature;BMP_pressure;BME280_temperature;BME280_humidity;BME280_pressure;Samples;Min_cycle;Max_cycle;Signal;HPM_P1;HPM_P2
2023/03/19 00:00:35;;;;;;;20.47;15.07;;;10.80;1.00;;;;;;5025531;28;20573;-83
2023/03/19 00:03:02;;;;;;;24.40;21.77;;;10.70;1.00;;;;;;5030659;28;20481;-83
2023/03/19 00:05:32;;;;;;;26.03;19.00;;;10.70;1.00;;;;;;5025290;28;21269;-83
2023/03/19 00:07:59;;;;;;;24.13;16.50;;;10.60;1.00;;;;;;5025241;28;20553;-83
2023/03/19 00:10:28;;;;;;;22.50;16.53;;;10.60;1.00;;;;;;5028893;28;20824;-82
2023/03/19 00:12:55;;;;;;;22.03;15.50;;;10.50;1.00;;;;;;5030233;28;20477;-83
2023/03/19 00:15:25;;;;;;;20.80;15.07;;;10.50;1.00;;;;;;5024593;28;20532;-83
2023/03/19 00:17:53;;;;;;;18.87;15.40;;;10.50;1.00;;;;;;5027723;28;20988;-83
2023/03/19 00:20:21;;;;;;;21.47;15.50;;;10.40;1.00;;;;;;5029980;28;20457;-83
2023/03/19 00:22:47;;;;;;;19.23;15.50;;;10.40;1.00;;;;;;5025297;28;20512;-83
2023/03/19 00:25:14;;;;;;;19.67;16.27;;;10.30;1.00;;;;;;5027283;28;20478;-83
2023/03/19 00:27:43;;;;;;;18.47;14.10;;;10.40;1.00;;;;;;5025467;28;20485;-84
2023/03/19 00:30:11;;;;;;;17.97;14.27;;;10.30;1.00;;;;;;5027704;28;21033;-82
2023/03/19 00:32:39;;;;;;;18.97;14.67;;;10.30;1.00;;;;;;5031959;28;20960;-82
2023/03/19 00:35:08;;;;;;;17.43;14.37;;;10.20;1.00;;;;;;5030738;28;20461;-85
2023/03/19 00:37:36;;;;;;;22.03;15.10;;;10.10;1.00;;;;;;5032780;28;20505;-83
2023/03/19 00:40:04;;;;;;;19.00;14.30;;;10.10;1.00;;;;;;5028019;28;20460;-83
2023/03/19 00:42:31;;;;;;;19.00;13.63;;;10.10;1.00;;;;;;5027623;28;20473;-82
2023/03/19 00:44:59;;;;;;;19.07;14.60;;;10.10;1.00;;;;;;5028175;28;20508;-82
2023/03/19 00:47:26;;;;;;;16.57;13.63;;;10.10;1.00;;;;;;5029161;28;20527;-82
2023/03/19 00:49:55;;;;;;;18.10;13.00;;;10.00;1.00;;;;;;5029094;28;20493;-83
2023/03/19 00:52:22;;;;;;;19.47;13.60;;;10.00;1.00;;;;;;5031506;28;20481;-84
2023/03/19 00:54:49;;;;;;;17.17;13.87;;;9.90;1.00;;;;;;5029000;28;20545;-83
2023/03/19 00:57:16;;;;;;;18.97;13.47;;;10.00;1.00;;;;;;5029617;28;20465;-81
2023/03/19 00:59:43;;;;;;;18.20;13.57;;;9.90;1.00;;;;;;5033618;28;20449;-82
2023/03/19 01:02:12;;;;;;;17.13;13.83;;;9.90;1.00;;;;;;5027787;28;20446;-83
2023/03/19 01:04:38;;;;;;;20.40;14.40;;;9.90;1.00;;;;;;5031089;28;20454;-83
2023/03/19 01:07:06;;;;;;;17.23;13.43;;;9.90;1.00;;;;;;5026515;28;21179;-82
2023/03/19 01:09:34;;;;;;;17.50;14.23;;;9.80;1.00;;;;;;5026922;28;20472;-83
2023/03/19 01:12:03;;;;;;;18.63;14.20;;;9.80;1.00;;;;;;5028669;28;20462;-82
2023/03/19 01:14:30;;;;;;;17.23;14.37;;;9.80;1.00;;;;;;5028883;28;20441;-82
2023/03/19 01:16:59;;;;;;;17.87;14.57;;;9.80;1.00;;;;;;5028976;28;22332;-83
2023/03/19 01:19:27;;;;;;;16.50;13.30;;;9.80;1.00;;;;;;5026490;28;20957;-82
2023/03/19 01:21:54;;;;;;;19.90;12.97;;;9.90;1.00;;;;;;5030266;28;21076;-82
2023/03/19 01:24:21;;;;;;;16.90;13.37;;;9.80;1.00;;;;;;5028159;28;20456;-82
2023/03/19 01:26:48;;;;;;;22.77;14.77;;;9.70;1.00;;;;;;5025506;28;20464;-82
2023/03/19 01:29:15;;;;;;;18.60;14.07;;;9.70;1.00;;;;;;5024981;28;20548;-83
2023/03/19 01:31:42;;;;;;;16.90;13.60;;;9.70;1.00;;;;;;5030788;28;20497;-83
2023/03/19 01:34:09;;;;;;;19.70;13.63;;;9.60;1.00;;;;;;5036367;28;20481;-82
2023/03/19 01:36:38;;;;;;;17.97;13.37;;;9.60;1.00;;;;;;5030872;28;20489;-83
2023/03/19 01:39:06;;;;;;;16.13;13.37;;;9.60;1.00;;;;;;5033813;28;20469;-82
2023/03/19 01:41:33;;;;;;;21.90;13.43;;;9.60;1.00;;;;;;5030048;28;20535;-82
2023/03/19 01:44:01;;;;;;;18.13;12.93;;;9.50;1.00;;;;;;5040442;28;21120;-82
2023/03/19 01:46:32;;;;;;;18.00;14.77;;;9.50;1.00;;;;;;5037092;28;22863;-81
2023/03/19 01:49:02;;;;;;;17.70;12.83;;;9.50;1.00;;;;;;5037047;28;20474;-82
2023/03/19 01:51:35;;;;;;;17.00;12.57;;;9.50;1.00;;;;;;5036153;28;20422;-84
2023/03/19 01:54:07;;;;;;;16.50;12.50;;;9.50;1.00;;;;;;5038816;28;20457;-83
2023/03/19 01:56:37;;;;;;;15.90;12.00;;;9.50;1.00;;;;;;5032638;28;20731;-82
2023/03/19 01:59:11;;;;;;;19.03;13.23;;;9.50;1.00;;;;;;5029160;28;20505;-83
2023/03/19 02:01:42;;;;;;;17.40;13.10;;;9.50;1.00;;;;;;5031156;28;20447;-83
2023/03/19 02:04:09;;;;;;;18.63;12.53;;;9.50;1.00;;;;;;5035595;28;20449;-82
2023/03/19 02:06:37;;;;;;;19.37;14.60;;;9.50;1.00;;;;;;5036200;28;20609;-84
2023/03/19 02:09:05;;;;;;;19.87;13.50;;;9.50;1.00;;;;;;5035676;28;20472;-82
2023/03/19 02:11:33;;;;;;;21.77;14.07;;;9.50;1.00;;;;;;5028490;28;20553;-83
2023/03/19 02:13:59;;;;;;;16.17;13.70;;;9.50;1.00;;;;;;5035658;28;20460;-83
2023/03/19 02:16:26;;;;;;;17.60;13.90;;;9.50;1.00;;;;;;5041813;28;20450;-82
2023/03/19 02:18:53;;;;;;;19.00;12.50;;;9.50;1.00;;;;;;5038275;28;20418;-83
2023/03/19 02:21:21;;;;;;;18.40;14.20;;;9.50;1.00;;;;;;5038716;28;20445;-82
2023/03/19 02:23:55;;;;;;;18.20;13.47;;;9.50;1.00;;;;;;5035892;28;20555;-81
2023/03/19 02:26:25;;;;;;;21.13;14.97;;;9.40;1.00;;;;;;5020400;28;20473;-81
2023/03/19 02:28:53;;;;;;;18.83;13.10;;;9.30;1.00;;;;;;5033381;28;20474;-82
2023/03/19 02:31:20;;;;;;;16.80;13.63;;;9.30;1.00;;;;;;5021668;28;20525;-83
2023/03/19 02:33:58;;;;;;;18.03;13.70;;;9.30;1.00;;;;;;5032390;28;20480;-83
2023/03/19 02:36:30;;;;;;;19.00;14.00;;;9.30;1.00;;;;;;5029307;28;20433;-83
2023/03/19 02:39:00;;;;;;;19.23;13.20;;;9.40;1.00;;;;;;5030727;28;20462;-82
2023/03/19 02:41:31;;;;;;;19.40;14.17;;;9.40;1.00;;;;;;5028127;28;21042;-83
2023/03/19 02:44:02;;;;;;;19.70;14.20;;;9.50;1.00;;;;;;5033969;28;20445;-82
2023/03/19 02:46:29;;;;;;;19.40;15.10;;;9.50;1.00;;;;;;5028632;28;20481;-84
2023/03/19 02:48:56;;;;;;;16.53;13.57;;;9.50;1.00;;;;;;5030970;28;20493;-83
2023/03/19 02:51:23;;;;;;;17.20;13.80;;;9.50;1.00;;;;;;5032956;28;20454;-84
2023/03/19 02:53:50;;;;;;;20.53;14.60;;;9.60;1.00;;;;;;5040987;28;20477;-83
2023/03/19 02:56:17;;;;;;;22.10;14.30;;;9.50;1.00;;;;;;5036107;28;20989;-83
2023/03/19 02:58:50;;;;;;;18.70;14.93;;;9.50;1.00;;;;;;5029741;28;20454;-84
2023/03/19 03:01:17;;;;;;;17.00;13.47;;;9.50;1.00;;;;;;5032343;28;21391;-84
2023/03/19 03:03:44;;;;;;;16.87;13.43;;;9.50;1.00;;;;;;5034035;28;21399;-82
2023/03/19 03:06:12;;;;;;;18.10;14.03;;;9.50;1.00;;;;;;5028648;28;20470;-83
2023/03/19 03:08:40;;;;;;;17.83;15.00;;;9.60;1.00;;;;;;5036004;28;20496;-83
2023/03/19 03:11:08;;;;;;;20.20;14.70;;;9.70;1.00;;;;;;5029479;28;20480;-83
2023/03/19 03:13:35;;;;;;;16.23;13.23;;;9.70;1.00;;;;;;5031863;28;20636;-83
2023/03/19 03:16:04;;;;;;;17.90;13.63;;;9.60;1.00;;;;;;5029801;28;20490;-84
2023/03/19 03:18:31;;;;;;;19.60;14.00;;;9.60;1.00;;;;;;5028546;28;21049;-82
2023/03/19 03:21:04;;;;;;;17.23;13.50;;;9.60;1.00;;;;;;5025352;28;21204;-83
2023/03/19 03:23:30;;;;;;;20.43;14.30;;;9.50;1.00;;;;;;5028809;28;20512;-82
2023/03/19 03:25:57;;;;;;;18.97;13.67;;;9.40;1.00;;;;;;5028016;28;20514;-83
2023/03/19 03:28:25;;;;;;;18.17;13.00;;;9.40;1.00;;;;;;5031207;28;21027;-83
2023/03/19 03:31:00;;;;;;;17.43;14.10;;;9.40;1.00;;;;;;5028979;28;20576;-83
2023/03/19 03:33:28;;;;;;;18.03;13.00;;;9.50;1.00;;;;;;5032084;28;20565;-84
2023/03/19 03:35:55;;;;;;;17.40;13.90;;;9.50;1.00;;;;;;5028632;28;20450;-83
2023/03/19 03:38:25;;;;;;;18.63;14.40;;;9.50;1.00;;;;;;5029364;28;20454;-82
2023/03/19 03:40:54;;;;;;;16.60;12.63;;;9.50;1.00;;;;;;5030256;28;20533;-84
2023/03/19 03:43:21;;;;;;;20.43;13.23;;;9.40;1.00;;;;;;5028120;28;20466;-83
2023/03/19 03:45:49;;;;;;;16.83;12.83;;;9.40;1.00;;;;;;5027943;28;20548;-83
2023/03/19 03:48:16;;;;;;;18.63;12.77;;;9.30;1.00;;;;;;5031979;28;20501;-83
2023/03/19 03:50:45;;;;;;;16.77;12.93;;;9.40;1.00;;;;;;5031626;28;20462;-83
2023/03/19 03:53:13;;;;;;;21.17;13.77;;;9.40;1.00;;;;;;5027276;28;20446;-82
2023/03/19 03:55:41;;;;;;;20.53;13.40;;;9.40;1.00;;;;;;5030112;28;20497;-82
2023/03/19 03:58:07;;;;;;;16.13;13.00;;;9.30;1.00;;;;;;5026520;28;20493;-83
2023/03/19 04:00:35;;;;;;;17.53;12.83;;;9.20;1.00;;;;;;5028297;28;20609;-81
2023/03/19 04:03:02;;;;;;;18.80;13.90;;;9.30;1.00;;;;;;5026808;28;20457;-82
2023/03/19 04:05:29;;;;;;;21.43;15.00;;;9.30;1.00;;;;;;5023235;28;21301;-81
2023/03/19 04:07:58;;;;;;;17.00;13.70;;;9.30;1.00;;;;;;5025168;28;20540;-81
2023/03/19 04:10:25;;;;;;;16.57;13.70;;;9.30;1.00;;;;;;5028597;28;20477;-82
2023/03/19 04:12:52;;;;;;;17.73;14.70;;;9.20;1.00;;;;;;5027744;28;20546;-83
2023/03/19 04:15:19;;;;;;;18.23;14.57;;;9.30;1.00;;;;;;5021847;28;20501;-80
2023/03/19 04:17:46;;;;;;;19.53;14.73;;;9.20;1.00;;;;;;5028092;28;20493;-81
2023/03/19 04:20:15;;;;;;;17.27;13.40;;;9.20;1.00;;;;;;5018722;28;20547;-82
2023/03/19 04:22:42;;;;;;;19.70;13.50;;;9.20;1.00;;;;;;5022503;28;20843;-81
2023/03/19 04:25:10;;;;;;;19.13;13.27;;;9.00;1.00;;;;;;5022866;28;20558;-82
2023/03/19 04:27:37;;;;;;;20.77;13.90;;;9.10;1.00;;;;;;5024307;28;20515;-82
2023/03/19 04:30:05;;;;;;;16.73;13.33;;;9.10;1.00;;;;;;5025066;28;20692;-81
2023/03/19 04:32:34;;;;;;;17.17;13.23;;;9.20;1.00;;;;;;5026074;28;20893;-82
2023/03/19 04:35:02;;;;;;;18.10;14.30;;;9.20;1.00;;;;;;5025277;28;20929;-82
2023/03/19 04:37:28;;;;;;;18.80;13.77;;;9.30;1.00;;;;;;5023208;28;20417;-82
2023/03/19 04:39:58;;;;;;;17.47;14.43;;;9.30;1.00;;;;;;5022929;28;20528;-81
2023/03/19 04:42:27;;;;;;;17.23;13.00;;;9.30;1.00;;;;;;5026440;28;20459;-82
2023/03/19 04:44:53;;;;;;;19.40;14.67;;;9.40;1.00;;;;;;5021402;28;20457;-82
2023/03/19 04:47:20;;;;;;;17.57;14.17;;;9.40;1.00;;;;;;5030339;28;20493;-82
2023/03/19 04:49:47;;;;;;;17.03;14.10;;;9.40;1.00;;;;;;5022947;28;20965;-81
2023/03/19 04:52:14;;;;;;;20.10;14.67;;;9.50;1.00;;;;;;5028860;28;20469;-82
2023/03/19 04:54:43;;;;;;;16.80;13.83;;;9.50;1.00;;;;;;5025527;28;20559;-81
2023/03/19 04:57:11;;;;;;;19.73;14.43;;;9.60;1.00;;;;;;5025614;28;20422;-83
2023/03/19 04:59:40;;;;;;;18.03;14.00;;;9.60;1.00;;;;;;5022715;28;20591;-80
2023/03/19 05:02:07;;;;;;;16.80;13.33;;;9.60;1.00;;;;;;5020531;28;20453;-79
2023/03/19 05:04:34;;;;;;;18.30;14.37;;;9.60;1.00;;;;;;5020976;28;20465;-79
2023/03/19 05:07:01;;;;;;;19.47;14.50;;;9.70;1.00;;;;;;5031532;28;20525;-79
2023/03/19 05:09:29;;;;;;;16.30;13.60;;;9.70;1.00;;;;;;5029727;28;20508;-80
2023/03/19 05:11:57;;;;;;;17.40;14.30;;;9.60;1.00;;;;;;5027577;28;20928;-79
2023/03/19 05:14:24;;;;;;;19.30;15.07;;;9.40;1.00;;;;;;5026525;28;20506;-80
2023/03/19 05:16:52;;;;;;;17.30;14.20;;;9.40;1.00;;;;;;5030588;28;20465;-80
2023/03/19 05:19:19;;;;;;;18.80;15.40;;;9.10;1.00;;;;;;5026815;28;20477;-79
2023/03/19 05:21:46;;;;;;;20.73;14.27;;;9.00;1.00;;;;;;5028376;28;20453;-79
2023/03/19 05:24:13;;;;;;;20.30;15.60;;;8.90;1.00;;;;;;5026991;28;20465;-81
2023/03/19 05:26:40;;;;;;;18.70;15.13;;;8.90;1.00;;;;;;5028047;28;20982;-79
2023/03/19 05:29:09;;;;;;;18.50;14.97;;;8.90;1.00;;;;;;5024935;28;20895;-81
2023/03/19 05:31:37;;;;;;;21.53;16.87;;;8.80;1.00;;;;;;5022904;28;20535;-80
2023/03/19 05:34:06;;;;;;;18.93;16.67;;;8.80;1.00;;;;;;5027141;28;20474;-80
2023/03/19 05:36:33;;;;;;;21.53;16.50;;;8.80;1.00;;;;;;5029023;28;20472;-80
2023/03/19 05:39:01;;;;;;;20.93;16.63;;;8.80;1.00;;;;;;5028599;28;20464;-80
2023/03/19 05:41:28;;;;;;;23.07;17.50;;;8.80;1.00;;;;;;5017417;28;20436;-80
2023/03/19 05:43:55;;;;;;;25.30;18.10;;;8.90;1.00;;;;;;5021346;28;20516;-80
2023/03/19 05:46:23;;;;;;;21.37;17.30;;;8.90;1.00;;;;;;5026409;28;20506;-80
2023/03/19 05:48:50;;;;;;;21.10;17.80;;;8.80;1.00;;;;;;5027054;28;20485;-78
2023/03/19 05:51:18;;;;;;;24.07;18.17;;;8.70;1.00;;;;;;5024062;28;20468;-80
2023/03/19 05:53:45;;;;;;;24.03;19.00;;;8.50;1.00;;;;;;5026609;28;20556;-80
2023/03/19 05:56:13;;;;;;;24.37;18.67;;;8.50;1.00;;;;;;5026902;28;20464;-80
2023/03/19 05:58:39;;;;;;;23.67;18.77;;;8.40;1.00;;;;;;5029491;28;20469;-80
2023/03/19 06:01:06;;;;;;;24.10;18.90;;;8.30;1.00;;;;;;5026606;28;20467;-80
2023/03/19 06:03:33;;;;;;;21.80;18.50;;;8.40;1.00;;;;;;5025931;28;20453;-80
2023/03/19 06:06:00;;;;;;;25.37;17.43;;;8.40;1.00;;;;;;5030046;28;20541;-79
2023/03/19 06:08:29;;;;;;;23.53;17.60;;;8.40;1.00;;;;;;5021517;28;20472;-79
2023/03/19 06:10:56;;;;;;;24.87;19.63;;;8.50;1.00;;;;;;5024615;28;20481;-79
2023/03/19 06:13:23;;;;;;;24.80;18.40;;;8.50;1.00;;;;;;5029488;28;20602;-79
2023/03/19 06:15:50;;;;;;;24.17;17.70;;;8.60;1.00;;;;;;5029767;28;20541;-79
2023/03/19 06:18:18;;;;;;;25.17;19.37;;;8.70;1.00;;;;;;5013602;28;20484;-79
2023/03/19 06:20:47;;;;;;;23.13;18.20;;;8.70;1.00;;;;;;5027845;28;20924;-80
2023/03/19 06:23:14;;;;;;;21.00;17.73;;;8.80;1.00;;;;;;5031311;28;20481;-79
2023/03/19 06:25:44;;;;;;;22.00;16.87;;;8.80;1.00;;;;;;5031040;28;20490;-80
2023/03/19 06:28:11;;;;;;;20.97;17.47;;;8.80;1.00;;;;;;5029453;28;20469;-80
2023/03/19 06:30:38;;;;;;;21.27;17.50;;;8.90;1.00;;;;;;5032107;28;20452;-80
2023/03/19 06:33:05;;;;;;;21.13;16.93;;;9.00;1.00;;;;;;5031317;28;20574;-80
2023/03/19 06:35:32;;;;;;;21.40;16.53;;;9.10;1.00;;;;;;5027592;28;21216;-79
2023/03/19 06:37:59;;;;;;;20.27;16.97;;;9.30;1.00;;;;;;5024574;28;20555;-80
2023/03/19 06:40:27;;;;;;;19.70;15.77;;;9.40;1.00;;;;;;5025681;28;20565;-78
2023/03/19 06:42:55;;;;;;;21.03;17.03;;;9.30;1.00;;;;;;5027634;28;20469;-79
2023/03/19 06:45:22;;;;;;;21.03;16.10;;;9.10;1.00;;;;;;5026989;28;20507;-80
2023/03/19 06:47:50;;;;;;;19.50;15.67;;;9.20;1.00;;;;;;5027124;28;20496;-80
2023/03/19 06:50:17;;;;;;;21.10;16.40;;;9.20;1.00;;;;;;5024860;28;21282;-80
2023/03/19 06:52:45;;;;;;;21.10;15.70;;;9.30;1.00;;;;;;5029146;28;20496;-80
2023/03/19 06:55:12;;;;;;;19.80;16.00;;;9.40;1.00;;;;;;5032768;28;20453;-80
2023/03/19 06:57:39;;;;;;;18.40;14.97;;;9.50;1.00;;;;;;5030513;28;20480;-79
2023/03/19 07:00:10;;;;;;;19.70;14.70;;;9.50;1.00;;;;;;5025239;28;20556;-83
2023/03/19 07:02:37;;;;;;;18.93;14.40;;;9.70;1.00;;;;;;5027555;28;20480;-80
2023/03/19 07:05:05;;;;;;;20.80;15.50;;;9.90;1.00;;;;;;5027693;28;20553;-79
2023/03/19 07:07:32;;;;;;;20.10;16.53;;;9.90;1.00;;;;;;5025154;28;20559;-80
2023/03/19 07:10:00;;;;;;;19.30;16.30;;;10.00;1.00;;;;;;5013673;28;20993;-80
2023/03/19 07:12:27;;;;;;;22.20;15.10;;;10.10;1.00;;;;;;5029739;28;21000;-80
2023/03/19 07:14:54;;;;;;;21.20;16.47;;;10.20;1.00;;;;;;5030404;28;20492;-80
2023/03/19 07:17:23;;;;;;;21.20;15.97;;;10.20;1.00;;;;;;5027044;28;20461;-80
2023/03/19 07:19:50;;;;;;;21.37;16.40;;;10.20;1.00;;;;;;5026854;28;20450;-79
2023/03/19 07:22:17;;;;;;;19.20;15.53;;;10.10;1.00;;;;;;5028509;28;20516;-80
2023/03/19 07:24:45;;;;;;;23.60;16.90;;;10.20;1.00;;;;;;5032440;28;20442;-81
2023/03/19 07:27:12;;;;;;;21.50;17.17;;;10.20;1.00;;;;;;5025857;28;20560;-80
2023/03/19 07:29:39;;;;;;;19.60;15.37;;;10.20;1.00;;;;;;5023507;28;20625;-80
2023/03/19 07:32:07;;;;;;;22.80;18.10;;;10.20;1.00;;;;;;5028724;28;21161;-81
2023/03/19 07:34:36;;;;;;;21.90;17.80;;;10.20;1.00;;;;;;5028858;28;20425;-80
2023/03/19 07:37:02;;;;;;;22.40;18.27;;;10.20;1.00;;;;;;5032483;28;20996;-81
2023/03/19 07:39:29;;;;;;;20.17;17.60;;;10.40;1.00;;;;;;5030032;28;20461;-80
2023/03/19 07:41:59;;;;;;;22.40;18.27;;;10.40;1.00;;;;;;5028166;28;20479;-79
2023/03/19 07:44:27;;;;;;;20.33;17.70;;;10.50;1.00;;;;;;5015450;28;20461;-79
2023/03/19 07:46:53;;;;;;;22.77;17.43;;;10.70;1.00;;;;;;5029381;28;20481;-80
2023/03/19 07:49:21;;;;;;;20.90;18.20;;;10.90;1.00;;;;;;5027610;28;21168;-79
2023/03/19 07:51:50;;;;;;;24.37;17.80;;;11.00;1.00;;;;;;5022996;28;20446;-80
2023/03/19 07:54:17;;;;;;;21.30;17.10;;;11.10;1.00;;;;;;5025247;28;20465;-80
2023/03/19 07:56:44;;;;;;;20.27;16.97;;;11.00;1.00;;;;;;5026993;28;20490;-81
2023/03/19 07:59:11;;;;;;;22.40;17.47;;;10.90;1.00;;;;;;5023276;28;20909;-80
2023/03/19 08:01:39;;;;;;;20.60;17.47;;;11.10;1.00;;;;;;5028107;28;20477;-79
2023/03/19 08:04:07;;;;;;;20.80;17.07;;;11.70;1.00;;;;;;5026922;28;21008;-81
2023/03/19 08:06:34;;;;;;;19.60;16.93;;;12.00;1.00;;;;;;5025517;28;20472;-80
2023/03/19 08:09:02;;;;;;;19.07;16.17;;;12.20;1.00;;;;;;5026729;28;20449;-80
2023/03/19 08:11:30;;;;;;;19.03;15.47;;;12.60;1.00;;;;;;5025779;28;20462;-80
2023/03/19 08:13:58;;;;;;;21.23;15.83;;;12.90;1.00;;;;;;5026054;28;20430;-80
2023/03/19 08:16:25;;;;;;;17.70;13.63;;;13.30;1.00;;;;;;5033343;28;20473;-80
2023/03/19 08:18:52;;;;;;;18.90;14.37;;;13.60;1.00;;;;;;5031194;28;21150;-81
2023/03/19 08:21:19;;;;;;;19.40;14.60;;;14.00;1.00;;;;;;5024748;28;20560;-81
2023/03/19 08:23:46;;;;;;;18.07;14.63;;;14.30;1.00;;;;;;5023397;28;20499;-79
2023/03/19 08:26:15;;;;;;;16.93;13.63;;;14.40;1.00;;;;;;5027114;28;20637;-81
2023/03/19 08:28:42;;;;;;;15.40;12.77;;;14.10;1.00;;;;;;5032248;28;20475;-81
2023/03/19 08:31:13;;;;;;;18.07;12.63;;;14.20;1.00;;;;;;5023938;28;20493;-80
2023/03/19 08:33:41;;;;;;;13.30;11.70;;;13.90;1.00;;;;;;5010112;28;20465;-81
2023/03/19 08:36:12;;;;;;;15.63;13.23;;;13.90;1.00;;;;;;5021031;28;20472;-83
2023/03/19 08:38:39;;;;;;;14.07;12.47;;;14.00;1.00;;;;;;5022540;28;20518;-80
2023/03/19 08:41:07;;;;;;;18.03;12.87;;;13.80;1.00;;;;;;5019146;28;20480;-83
2023/03/19 08:43:36;;;;;;;19.40;13.70;;;13.50;1.00;;;;;;5019625;28;20473;-80
2023/03/19 08:46:04;;;;;;;18.17;12.93;;;13.30;1.00;;;;;;5023744;28;21008;-81
2023/03/19 08:48:31;;;;;;;15.30;12.00;;;12.90;1.00;;;;;;5021042;28;20462;-79
2023/03/19 08:51:00;;;;;;;17.73;13.20;;;12.80;1.00;;;;;;5020839;28;20479;-80
2023/03/19 08:53:27;;;;;;;18.20;13.80;;;12.70;1.00;;;;;;5014557;28;20586;-80
2023/03/19 08:55:55;;;;;;;19.10;13.33;;;12.20;1.00;;;;;;5020225;28;20509;-77
2023/03/19 08:58:23;;;;;;;18.70;14.10;;;11.70;1.00;;;;;;5026016;28;21385;-79
2023/03/19 09:00:52;;;;;;;16.97;14.50;;;11.10;1.00;;;;;;5020965;28;20473;-80
2023/03/19 09:03:20;;;;;;;19.80;14.93;;;10.70;1.00;;;;;;5030709;28;20463;-80
2023/03/19 09:05:47;;;;;;;19.13;15.17;;;10.40;1.00;;;;;;5032714;28;20484;-79
2023/03/19 09:08:14;;;;;;;21.90;16.13;;;10.20;1.00;;;;;;5027081;28;20540;-79
2023/03/19 09:10:41;;;;;;;22.30;17.17;;;10.10;1.00;;;;;;5028559;28;21344;-79
2023/03/19 09:13:08;;;;;;;20.97;16.53;;;10.00;1.00;;;;;;5027512;28;20461;-80
2023/03/19 09:15:35;;;;;;;25.97;20.30;;;9.90;1.00;;;;;;5024134;28;20576;-80
2023/03/19 09:18:04;;;;;;;24.10;18.30;;;9.90;1.00;;;;;;5025085;28;20454;-80
2023/03/19 09:20:31;;;;;;;22.57;18.20;;;9.90;1.00;;;;;;5006648;28;20890;-80
2023/03/19 09:22:58;;;;;;;23.60;18.37;;;9.90;1.00;;;;;;5020905;28;20901;-81
2023/03/19 09:25:25;;;;;;;21.70;16.97;;;9.90;1.00;;;;;;5022066;28;20568;-80
2023/03/19 09:27:52;;;;;;;22.27;16.87;;;9.90;1.00;;;;;;5023989;28;21016;-81
2023/03/19 09:30:20;;;;;;;22.80;18.67;;;10.00;1.00;;;;;;5021470;28;20473;-81
2023/03/19 09:32:47;;;;;;;22.07;17.87;;;9.90;1.00;;;;;;5027221;28;20513;-81
2023/03/19 09:35:16;;;;;;;24.80;18.73;;;10.00;1.00;;;;;;5025697;28;20457;-80
2023/03/19 09:37:43;;;;;;;24.53;17.47;;;10.20;1.00;;;;;;5024389;28;21016;-79
2023/03/19 09:40:24;;;;;;;23.00;18.40;;;10.20;1.00;;;;;;5019904;28;20953;-80
2023/03/19 09:43:05;;;;;;;22.30;17.80;;;10.30;1.00;;;;;;5024466;28;20453;-79
2023/03/19 09:45:32;;;;;;;23.23;18.53;;;10.20;1.00;;;;;;5024518;28;20445;-79
2023/03/19 09:48:04;;;;;;;20.23;17.10;;;10.40;1.00;;;;;;5023269;28;20481;-80
2023/03/19 09:50:35;;;;;;;21.87;17.30;;;10.50;1.00;;;;;;5025980;28;20481;-79
2023/03/19 09:53:08;;;;;;;22.07;17.90;;;10.60;1.00;;;;;;5025695;28;20485;-78
2023/03/19 09:55:41;;;;;;;23.07;17.27;;;10.60;1.00;;;;;;5024956;28;20536;-81
2023/03/19 09:58:15;;;;;;;27.77;21.20;;;10.60;1.00;;;;;;5025532;28;20543;-80
2023/03/19 10:00:45;;;;;;;26.03;17.90;;;10.60;1.00;;;;;;5027009;28;20477;-79
2023/03/19 10:03:34;;;;;;;23.10;18.43;;;10.60;1.00;;;;;;5030595;28;20441;-80
2023/03/19 10:06:15;;;;;;;22.80;17.93;;;10.70;1.00;;;;;;5024789;28;20597;-78
2023/03/19 10:08:54;;;;;;;21.47;16.27;;;10.70;1.00;;;;;;5025230;28;20454;-79
2023/03/19 10:11:41;;;;;;;21.43;17.00;;;10.80;1.00;;;;;;5024449;28;20463;-79
2023/03/19 10:14:40;;;;;;;23.77;19.37;;;10.90;1.00;;;;;;5028159;28;21355;-79
2023/03/19 10:17:12;;;;;;;22.20;17.70;;;11.00;1.00;;;;;;5004329;28;20509;-80
2023/03/19 10:19:45;;;;;;;24.90;18.77;;;11.20;1.00;;;;;;5022311;28;20701;-78
2023/03/19 10:22:21;;;;;;;25.03;19.50;;;11.30;1.00;;;;;;5022352;28;20434;-79
2023/03/19 10:24:49;;;;;;;23.80;17.03;;;11.40;1.00;;;;;;5023485;28;20414;-81
2023/03/19 10:27:19;;;;;;;21.07;15.10;;;11.90;1.00;;;;;;5023730;28;20464;-81
2023/03/19 10:29:47;;;;;;;19.50;14.80;;;12.10;1.00;;;;;;5023156;28;20481;-79
2023/03/19 10:32:18;;;;;;;18.70;16.10;;;12.00;1.00;;;;;;5024458;28;20983;-79
2023/03/19 10:34:49;;;;;;;19.40;17.03;;;11.80;1.00;;;;;;5021388;28;20532;-80
2023/03/19 10:37:19;;;;;;;20.00;15.60;;;11.80;1.00;;;;;;5021784;28;21969;-80
2023/03/19 10:39:48;;;;;;;20.00;14.80;;;11.80;1.00;;;;;;5023264;28;20475;-79
2023/03/19 10:42:47;;;;;;;18.73;15.33;;;11.70;1.00;;;;;;5025089;28;20506;-81
2023/03/19 10:45:21;;;;;;;18.47;16.07;;;11.60;1.00;;;;;;5025817;28;20473;-80
2023/03/19 10:47:48;;;;;;;18.30;15.70;;;11.70;1.00;;;;;;5021044;28;20455;-80
2023/03/19 10:50:17;;;;;;;20.60;15.87;;;11.80;1.00;;;;;;5023969;28;20514;-81
2023/03/19 10:52:52;;;;;;;19.53;15.80;;;12.00;1.00;;;;;;5027502;28;20555;-81
2023/03/19 10:55:24;;;;;;;22.67;14.87;;;12.40;1.00;;;;;;5022094;28;20539;-81
2023/03/19 10:57:57;;;;;;;20.37;15.50;;;12.70;1.00;;;;;;5023569;28;20484;-81
2023/03/19 11:00:25;;;;;;;16.07;12.90;;;13.10;1.00;;;;;;5030007;28;20464;-81
2023/03/19 11:02:54;;;;;;;16.20;13.80;;;13.20;1.00;;;;;;5026544;28;20464;-81
2023/03/19 11:05:27;;;;;;;17.10;13.70;;;13.60;1.00;;;;;;5027374;28;20463;-80
2023/03/19 11:08:01;;;;;;;33.10;29.40;;;13.80;1.00;;;;;;5026583;28;20485;-80
2023/03/19 11:10:29;;;;;;;15.37;13.70;;;13.90;1.00;;;;;;5028545;28;20453;-79
2023/03/19 11:13:27;;;;;;;17.33;13.37;;;14.00;1.00;;;;;;5022795;28;20551;-79
2023/03/19 11:15:59;;;;;;;16.53;12.87;;;14.10;1.00;;;;;;5027593;28;20477;-79
2023/03/19 11:18:29;;;;;;;17.00;13.20;;;14.20;1.00;;;;;;5025773;28;20477;-80
2023/03/19 11:21:01;;;;;;;14.60;11.33;;;14.30;1.00;;;;;;5027437;28;20585;-79
2023/03/19 11:23:31;;;;;;;17.00;11.97;;;14.50;1.00;;;;;;5028193;28;20446;-81
2023/03/19 11:26:01;;;;;;;16.33;12.07;;;15.00;1.00;;;;;;5022607;28;20560;-79
2023/03/19 11:28:32;;;;;;;14.33;10.83;;;15.10;1.00;;;;;;5028319;28;20486;-82
2023/03/19 11:31:11;;;;;;;15.40;12.10;;;15.20;1.00;;;;;;5010242;28;20977;-80
2023/03/19 11:33:49;;;;;;;14.03;11.20;;;15.60;1.00;;;;;;5029707;28;20561;-80
2023/03/19 11:36:22;;;;;;;15.60;10.27;;;16.00;1.00;;;;;;5028592;28;20437;-80
2023/03/19 11:39:04;;;;;;;14.93;11.17;;;16.70;1.00;;;;;;5030644;28;20538;-80
2023/03/19 11:41:48;;;;;;;16.17;10.90;;;17.30;1.00;;;;;;5029724;28;20455;-80
2023/03/19 11:44:17;;;;;;;14.13;11.10;;;17.20;1.00;;;;;;5027809;28;20498;-81
2023/03/19 11:46:53;;;;;;;12.53;10.10;;;16.90;1.00;;;;;;5018523;28;20473;-80
2023/03/19 11:49:43;;;;;;;12.63;10.13;;;17.00;1.00;;;;;;5025022;28;21318;-80
2023/03/19 11:52:22;;;;;;;14.07;10.20;;;17.40;1.00;;;;;;5020772;28;20606;-81
2023/03/19 11:55:03;;;;;;;11.97;9.10;;;18.00;1.00;;;;;;5032235;28;20460;-80
2023/03/19 11:57:45;;;;;;;13.73;12.23;;;17.90;1.00;;;;;;5029959;28;20447;-81
2023/03/19 12:00:25;;;;;;;14.60;11.57;;;17.70;1.00;;;;;;5029500;28;20482;-80
2023/03/19 12:03:17;;;;;;;12.73;10.20;;;17.50;1.00;;;;;;5025495;28;20462;-81
2023/03/19 12:05:54;;;;;;;12.67;10.23;;;17.50;1.00;;;;;;5028078;28;20459;-80
2023/03/19 12:08:31;;;;;;;12.37;9.97;;;17.20;1.00;;;;;;5028999;28;20462;-81
2023/03/19 12:11:25;;;;;;;14.03;10.10;;;16.90;1.00;;;;;;5022315;28;20573;-81
2023/03/19 12:14:06;;;;;;;13.07;9.40;;;16.70;1.00;;;;;;5024388;28;20464;-81
2023/03/19 12:16:47;;;;;;;13.13;9.80;;;16.60;1.00;;;;;;5025068;28;20498;-80
2023/03/19 12:19:27;;;;;;;14.33;10.60;;;16.50;1.00;;;;;;5022383;28;20467;-80
2023/03/19 12:22:07;;;;;;;15.10;12.10;;;16.50;1.00;;;;;;5009178;28;20575;-81
2023/03/19 12:24:51;;;;;;;12.93;9.90;;;16.60;1.00;;;;;;5026529;28;20445;-81
2023/03/19 12:27:29;;;;;;;13.97;10.67;;;16.40;1.00;;;;;;5025984;28;20557;-80
2023/03/19 12:30:01;;;;;;;14.87;11.90;;;16.30;1.00;;;;;;5023413;28;20473;-80
2023/03/19 12:32:45;;;;;;;14.00;12.03;;;16.20;1.00;;;;;;5025432;28;20826;-80
2023/03/19 12:35:15;;;;;;;13.80;11.00;;;16.30;1.00;;;;;;5024724;28;20461;-80
2023/03/19 12:37:53;;;;;;;15.73;11.00;;;16.30;1.00;;;;;;5021546;28;20560;-80
2023/03/19 12:40:35;;;;;;;16.77;10.43;;;16.40;1.00;;;;;;5026808;28;20469;-81
2023/03/19 12:43:15;;;;;;;13.40;11.37;;;16.50;1.00;;;;;;5027994;28;20473;-81
2023/03/19 12:45:58;;;;;;;12.77;10.73;;;16.70;1.00;;;;;;5014531;28;22057;-83
2023/03/19 12:48:31;;;;;;;15.57;10.27;;;16.70;1.00;;;;;;5027044;28;20557;-81
2023/03/19 12:51:16;;;;;;;15.80;10.80;;;16.90;1.00;;;;;;5034277;28;20787;-80
2023/03/19 12:53:48;;;;;;;13.30;10.87;;;17.30;1.00;;;;;;5028655;28;20472;-83
2023/03/19 12:56:29;;;;;;;15.00;10.80;;;17.50;1.00;;;;;;5013254;28;20507;-81